sensor_id;sensor_type;location;lat;lon;timestamp;temperature;humidity
4584;DHT22;2304;47.606;12.186;2023-10-19T00:02:35;12.60;71.50
4584;DHT22;2304;47.606;12.186;2023-10-19T00:07:37;12.70;71.60
4584;DHT22;2304;47.606;12.186;2023-10-19T00:12:41;12.60;72.90
4584;DHT22;2304;47.606;12.186;2023-10-19T00:17:44;12.60;72.30
4584;DHT22;2304;47.606;12.186;2023-10-19T00:22:46;12.50;72.80
4584;DHT22;2304;47.606;12.186;2023-10-19T00:27:49;12.40;73.10
4584;DHT22;2304;47.606;12.186;2023-10-19T00:32:52;12.50;72.50
4584;DHT22;2304;47.606;12.186;2023-10-19T00:37:56;12.50;72.20
4584;DHT22;2304;47.606;12.186;2023-10-19T00:43:27;12.60;71.90
4584;DHT22;2304;47.606;12.186;2023-10-19T00:48:34;12.60;72.70
4584;DHT22;2304;47.606;12.186;2023-10-19T00:53:37;12.50;72.00
4584;DHT22;2304;47.606;12.186;2023-10-19T00:58:41;12.50;72.10
4584;DHT22;2304;47.606;12.186;2023-10-19T01:03:48;12.40;72.30
4584;DHT22;2304;47.606;12.186;2023-10-19T01:08:53;12.40;72.20
4584;DHT22;2304;47.606;12.186;2023-10-19T01:13:57;12.40;72.30
4584;DHT22;2304;47.606;12.186;2023-10-19T01:18:59;12.40;72.00
4584;DHT22;2304;47.606;12.186;2023-10-19T01:24:08;12.40;71.80
4584;DHT22;2304;47.606;12.186;2023-10-19T01:29:13;12.40;72.00
4584;DHT22;2304;47.606;12.186;2023-10-19T01:34:15;12.40;72.00
4584;DHT22;2304;47.606;12.186;2023-10-19T01:39:21;12.40;71.90
4584;DHT22;2304;47.606;12.186;2023-10-19T01:44:23;12.40;71.80
4584;DHT22;2304;47.606;12.186;2023-10-19T01:49:26;12.40;71.80
4584;DHT22;2304;47.606;12.186;2023-10-19T01:54:30;12.40;71.80
4584;DHT22;2304;47.606;12.186;2023-10-19T01:59:32;12.30;71.90
4584;DHT22;2304;47.606;12.186;2023-10-19T02:04:35;12.30;72.10
4584;DHT22;2304;47.606;12.186;2023-10-19T02:09:38;12.30;71.80
4584;DHT22;2304;47.606;12.186;2023-10-19T02:14:40;12.30;71.90
4584;DHT22;2304;47.606;12.186;2023-10-19T02:19:42;12.30;72.80
4584;DHT22;2304;47.606;12.186;2023-10-19T02:24:45;12.30;72.00
4584;DHT22;2304;47.606;12.186;2023-10-19T02:29:47;12.20;72.20
4584;DHT22;2304;47.606;12.186;2023-10-19T02:34:51;12.30;72.20
4584;DHT22;2304;47.606;12.186;2023-10-19T02:39:54;12.50;72.30
4584;DHT22;2304;47.606;12.186;2023-10-19T02:44:56;12.20;72.10
4584;DHT22;2304;47.606;12.186;2023-10-19T02:49:58;12.20;72.10
4584;DHT22;2304;47.606;12.186;2023-10-19T02:55:01;12.20;72.00
4584;DHT22;2304;47.606;12.186;2023-10-19T03:00:06;12.20;72.00
4584;DHT22;2304;47.606;12.186;2023-10-19T03:05:13;12.20;72.40
4584;DHT22;2304;47.606;12.186;2023-10-19T03:10:17;12.20;72.40
4584;DHT22;2304;47.606;12.186;2023-10-19T03:15:24;12.20;72.50
4584;DHT22;2304;47.606;12.186;2023-10-19T03:20:26;12.20;72.40
4584;DHT22;2304;47.606;12.186;2023-10-19T03:25:30;12.20;72.50
4584;DHT22;2304;47.606;12.186;2023-10-19T03:30:55;12.20;72.50
4584;DHT22;2304;47.606;12.186;2023-10-19T03:35:59;12.40;72.50
4584;DHT22;2304;47.606;12.186;2023-10-19T03:41:03;12.20;72.30
4584;DHT22;2304;47.606;12.186;2023-10-19T03:46:09;12.30;72.10
4584;DHT22;2304;47.606;12.186;2023-10-19T03:51:22;12.30;72.20
4584;DHT22;2304;47.606;12.186;2023-10-19T03:56:27;12.30;72.20
4584;DHT22;2304;47.606;12.186;2023-10-19T04:01:33;12.30;72.00
4584;DHT22;2304;47.606;12.186;2023-10-19T04:06:35;12.40;71.80
4584;DHT22;2304;47.606;12.186;2023-10-19T04:11:38;12.40;71.60
4584;DHT22;2304;47.606;12.186;2023-10-19T04:16:49;12.50;71.40
4584;DHT22;2304;47.606;12.186;2023-10-19T04:21:50;12.50;71.70
4584;DHT22;2304;47.606;12.186;2023-10-19T04:26:53;12.50;71.80
4584;DHT22;2304;47.606;12.186;2023-10-19T04:31:59;12.50;71.70
4584;DHT22;2304;47.606;12.186;2023-10-19T04:37:01;12.50;72.10
4584;DHT22;2304;47.606;12.186;2023-10-19T04:42:05;12.50;72.20
4584;DHT22;2304;47.606;12.186;2023-10-19T04:47:06;12.50;72.20
4584;DHT22;2304;47.606;12.186;2023-10-19T04:52:08;12.50;71.90
4584;DHT22;2304;47.606;12.186;2023-10-19T04:57:11;12.50;72.10
4584;DHT22;2304;47.606;12.186;2023-10-19T05:02:13;12.60;72.70
4584;DHT22;2304;47.606;12.186;2023-10-19T05:07:15;12.60;72.70
4584;DHT22;2304;47.606;12.186;2023-10-19T05:12:19;12.60;72.50
4584;DHT22;2304;47.606;12.186;2023-10-19T05:17:22;12.50;73.00
4584;DHT22;2304;47.606;12.186;2023-10-19T05:22:24;12.60;72.70
4584;DHT22;2304;47.606;12.186;2023-10-19T05:27:31;12.60;72.70
4584;DHT22;2304;47.606;12.186;2023-10-19T05:32:33;12.50;73.30
4584;DHT22;2304;47.606;12.186;2023-10-19T05:37:35;12.60;73.10
4584;DHT22;2304;47.606;12.186;2023-10-19T05:42:38;12.60;73.60
4584;DHT22;2304;47.606;12.186;2023-10-19T05:47:40;12.60;73.90
4584;DHT22;2304;47.606;12.186;2023-10-19T05:52:42;12.50;74.00
4584;DHT22;2304;47.606;12.186;2023-10-19T05:57:45;12.60;74.30
4584;DHT22;2304;47.606;12.186;2023-10-19T06:02:48;12.60;73.90
4584;DHT22;2304;47.606;12.186;2023-10-19T06:07:50;12.60;73.50
4584;DHT22;2304;47.606;12.186;2023-10-19T06:12:54;12.70;73.90
4584;DHT22;2304;47.606;12.186;2023-10-19T06:17:55;12.60;74.30
4584;DHT22;2304;47.606;12.186;2023-10-19T06:22:57;12.60;74.70
4584;DHT22;2304;47.606;12.186;2023-10-19T06:28:06;12.60;75.70
4584;DHT22;2304;47.606;12.186;2023-10-19T06:33:08;12.70;75.70
4584;DHT22;2304;47.606;12.186;2023-10-19T06:38:09;12.70;76.20
4584;DHT22;2304;47.606;12.186;2023-10-19T06:43:12;12.70;76.90
4584;DHT22;2304;47.606;12.186;2023-10-19T06:48:14;12.80;78.40
4584;DHT22;2304;47.606;12.186;2023-10-19T06:53:16;12.80;76.70
4584;DHT22;2304;47.606;12.186;2023-10-19T06:58:21;12.90;77.10
4584;DHT22;2304;47.606;12.186;2023-10-19T07:03:26;12.90;77.10
4584;DHT22;2304;47.606;12.186;2023-10-19T07:08:34;13.00;76.10
4584;DHT22;2304;47.606;12.186;2023-10-19T07:13:37;13.00;75.50
4584;DHT22;2304;47.606;12.186;2023-10-19T07:18:40;13.10;74.60
4584;DHT22;2304;47.606;12.186;2023-10-19T07:23:42;13.30;74.60
4584;DHT22;2304;47.606;12.186;2023-10-19T07:28:47;13.10;75.20
4584;DHT22;2304;47.606;12.186;2023-10-19T07:33:49;13.20;75.90
4584;DHT22;2304;47.606;12.186;2023-10-19T07:38:51;13.30;76.40
4584;DHT22;2304;47.606;12.186;2023-10-19T07:43:54;13.40;76.20
4584;DHT22;2304;47.606;12.186;2023-10-19T07:48:56;13.50;76.00
4584;DHT22;2304;47.606;12.186;2023-10-19T07:53:59;13.50;74.90
4584;DHT22;2304;47.606;12.186;2023-10-19T07:59:03;13.60;74.50
4584;DHT22;2304;47.606;12.186;2023-10-19T08:04:05;13.60;73.20
4584;DHT22;2304;47.606;12.186;2023-10-19T08:09:07;13.70;71.90
4584;DHT22;2304;47.606;12.186;2023-10-19T08:14:13;13.80;72.40
4584;DHT22;2304;47.606;12.186;2023-10-19T08:19:15;13.90;72.00
4584;DHT22;2304;47.606;12.186;2023-10-19T08:24:16;14.00;71.70
4584;DHT22;2304;47.606;12.186;2023-10-19T08:29:20;14.20;72.20
4584;DHT22;2304;47.606;12.186;2023-10-19T08:34:22;14.30;71.50
4584;DHT22;2304;47.606;12.186;2023-10-19T08:39:26;14.50;71.30
4584;DHT22;2304;47.606;12.186;2023-10-19T08:44:29;14.60;70.40
4584;DHT22;2304;47.606;12.186;2023-10-19T08:49:31;14.60;69.30
4584;DHT22;2304;47.606;12.186;2023-10-19T08:54:32;14.80;69.20
4584;DHT22;2304;47.606;12.186;2023-10-19T08:59:36;14.90;69.00
4584;DHT22;2304;47.606;12.186;2023-10-19T09:04:42;15.00;69.30
4584;DHT22;2304;47.606;12.186;2023-10-19T09:09:45;15.20;66.90
4584;DHT22;2304;47.606;12.186;2023-10-19T09:14:49;15.20;66.90
4584;DHT22;2304;47.606;12.186;2023-10-19T09:19:51;15.30;66.20
4584;DHT22;2304;47.606;12.186;2023-10-19T09:24:54;15.30;67.00
4584;DHT22;2304;47.606;12.186;2023-10-19T09:29:57;15.30;66.90
4584;DHT22;2304;47.606;12.186;2023-10-19T09:35:00;15.40;68.10
4584;DHT22;2304;47.606;12.186;2023-10-19T09:40:04;15.60;66.50
4584;DHT22;2304;47.606;12.186;2023-10-19T09:45:08;15.70;66.30
4584;DHT22;2304;47.606;12.186;2023-10-19T09:50:10;16.10;66.80
4584;DHT22;2304;47.606;12.186;2023-10-19T09:55:17;16.50;65.90
4584;DHT22;2304;47.606;12.186;2023-10-19T10:00:24;17.00;64.30
4584;DHT22;2304;47.606;12.186;2023-10-19T10:05:47;17.50;63.80
4584;DHT22;2304;47.606;12.186;2023-10-19T10:10:50;17.90;62.00
4584;DHT22;2304;47.606;12.186;2023-10-19T10:15:54;18.30;61.20
4584;DHT22;2304;47.606;12.186;2023-10-19T10:21:05;18.80;59.70
4584;DHT22;2304;47.606;12.186;2023-10-19T10:26:09;18.90;57.20
4584;DHT22;2304;47.606;12.186;2023-10-19T10:31:14;19.10;59.20
4584;DHT22;2304;47.606;12.186;2023-10-19T10:36:18;19.50;59.40
4584;DHT22;2304;47.606;12.186;2023-10-19T10:41:21;19.70;55.80
4584;DHT22;2304;47.606;12.186;2023-10-19T10:46:25;19.80;55.30
4584;DHT22;2304;47.606;12.186;2023-10-19T10:51:28;20.20;56.80
4584;DHT22;2304;47.606;12.186;2023-10-19T10:56:30;20.40;53.30
4584;DHT22;2304;47.606;12.186;2023-10-19T11:01:33;20.40;54.20
4584;DHT22;2304;47.606;12.186;2023-10-19T11:06:47;20.40;55.60
4584;DHT22;2304;47.606;12.186;2023-10-19T11:11:49;20.60;55.70
4584;DHT22;2304;47.606;12.186;2023-10-19T11:16:54;20.40;54.40
4584;DHT22;2304;47.606;12.186;2023-10-19T11:21:56;20.30;56.10
4584;DHT22;2304;47.606;12.186;2023-10-19T11:26:59;20.00;55.20
4584;DHT22;2304;47.606;12.186;2023-10-19T11:32:03;19.70;56.00
4584;DHT22;2304;47.606;12.186;2023-10-19T11:37:06;19.80;56.40
4584;DHT22;2304;47.606;12.186;2023-10-19T11:42:08;20.10;56.00
4584;DHT22;2304;47.606;12.186;2023-10-19T11:47:12;20.20;56.60
4584;DHT22;2304;47.606;12.186;2023-10-19T11:52:15;20.50;56.00
4584;DHT22;2304;47.606;12.186;2023-10-19T11:57:17;20.80;54.90
4584;DHT22;2304;47.606;12.186;2023-10-19T12:02:21;21.40;53.70
4584;DHT22;2304;47.606;12.186;2023-10-19T12:07:23;21.50;54.20
4584;DHT22;2304;47.606;12.186;2023-10-19T12:12:24;21.60;54.20
4584;DHT22;2304;47.606;12.186;2023-10-19T12:17:28;22.00;53.60
4584;DHT22;2304;47.606;12.186;2023-10-19T12:22:31;21.90;53.00
4584;DHT22;2304;47.606;12.186;2023-10-19T12:27:36;21.60;54.20
4584;DHT22;2304;47.606;12.186;2023-10-19T12:32:40;21.70;55.10
4584;DHT22;2304;47.606;12.186;2023-10-19T12:37:41;22.20;55.00
4584;DHT22;2304;47.606;12.186;2023-10-19T12:42:46;22.10;53.20
4584;DHT22;2304;47.606;12.186;2023-10-19T12:47:50;21.90;54.30
4584;DHT22;2304;47.606;12.186;2023-10-19T12:52:52;22.10;54.00
4584;DHT22;2304;47.606;12.186;2023-10-19T12:57:56;21.90;53.70
4584;DHT22;2304;47.606;12.186;2023-10-19T13:03:01;21.70;54.40
4584;DHT22;2304;47.606;12.186;2023-10-19T13:08:05;21.90;54.10
4584;DHT22;2304;47.606;12.186;2023-10-19T13:13:09;22.20;53.70
4584;DHT22;2304;47.606;12.186;2023-10-19T13:18:13;22.40;52.70
4584;DHT22;2304;47.606;12.186;2023-10-19T13:23:20;22.40;53.20
4584;DHT22;2304;47.606;12.186;2023-10-19T13:28:23;22.50;53.00
4584;DHT22;2304;47.606;12.186;2023-10-19T13:33:27;22.20;53.60
4584;DHT22;2304;47.606;12.186;2023-10-19T13:38:30;21.80;54.20
4584;DHT22;2304;47.606;12.186;2023-10-19T13:43:31;21.50;54.40
4584;DHT22;2304;47.606;12.186;2023-10-19T13:48:35;21.40;55.30
4584;DHT22;2304;47.606;12.186;2023-10-19T13:53:39;21.30;56.70
4584;DHT22;2304;47.606;12.186;2023-10-19T13:58:41;21.10;56.80
4584;DHT22;2304;47.606;12.186;2023-10-19T14:03:44;20.90;56.90
4584;DHT22;2304;47.606;12.186;2023-10-19T14:08:46;20.80;57.10
4584;DHT22;2304;47.606;12.186;2023-10-19T14:13:48;20.60;57.10
4584;DHT22;2304;47.606;12.186;2023-10-19T14:18:54;20.60;57.60
4584;DHT22;2304;47.606;12.186;2023-10-19T14:23:56;20.40;57.90
4584;DHT22;2304;47.606;12.186;2023-10-19T14:28:58;20.30;58.30
4584;DHT22;2304;47.606;12.186;2023-10-19T14:34:01;20.20;58.60
4584;DHT22;2304;47.606;12.186;2023-10-19T14:39:04;20.10;58.80
4584;DHT22;2304;47.606;12.186;2023-10-19T14:44:06;20.00;59.00
4584;DHT22;2304;47.606;12.186;2023-10-19T14:49:11;19.90;59.00
4584;DHT22;2304;47.606;12.186;2023-10-19T14:54:12;19.80;59.20
4584;DHT22;2304;47.606;12.186;2023-10-19T14:59:14;19.70;59.10
4584;DHT22;2304;47.606;12.186;2023-10-19T15:04:17;19.70;59.10
4584;DHT22;2304;47.606;12.186;2023-10-19T15:09:19;19.60;59.30
4584;DHT22;2304;47.606;12.186;2023-10-19T15:14:26;19.60;59.70
4584;DHT22;2304;47.606;12.186;2023-10-19T15:19:29;19.50;60.00
4584;DHT22;2304;47.606;12.186;2023-10-19T15:24:30;19.40;60.40
4584;DHT22;2304;47.606;12.186;2023-10-19T15:29:32;19.30;60.30
4584;DHT22;2304;47.606;12.186;2023-10-19T15:34:36;19.20;60.40
4584;DHT22;2304;47.606;12.186;2023-10-19T15:39:38;19.20;60.30
4584;DHT22;2304;47.606;12.186;2023-10-19T15:44:39;19.10;60.40
4584;DHT22;2304;47.606;12.186;2023-10-19T15:49:47;19.10;61.20
4584;DHT22;2304;47.606;12.186;2023-10-19T15:54:50;19.00;61.10
4584;DHT22;2304;47.606;12.186;2023-10-19T15:59:52;19.00;61.60
4584;DHT22;2304;47.606;12.186;2023-10-19T16:04:56;18.90;62.50
4584;DHT22;2304;47.606;12.186;2023-10-19T16:09:58;18.90;62.10
4584;DHT22;2304;47.606;12.186;2023-10-19T16:15:00;18.80;62.80
4584;DHT22;2304;47.606;12.186;2023-10-19T16:20:03;18.70;63.40
4584;DHT22;2304;47.606;12.186;2023-10-19T16:25:08;18.60;64.20
4584;DHT22;2304;47.606;12.186;2023-10-19T16:30:11;18.50;65.30
4584;DHT22;2304;47.606;12.186;2023-10-19T16:35:15;18.40;65.60
4584;DHT22;2304;47.606;12.186;2023-10-19T16:40:17;18.10;66.70
4584;DHT22;2304;47.606;12.186;2023-10-19T16:45:19;18.20;66.90
4584;DHT22;2304;47.606;12.186;2023-10-19T16:50:22;18.20;67.00
4584;DHT22;2304;47.606;12.186;2023-10-19T16:55:24;18.10;67.40
4584;DHT22;2304;47.606;12.186;2023-10-19T17:00:27;18.00;67.90
4584;DHT22;2304;47.606;12.186;2023-10-19T17:05:32;18.00;68.20
4584;DHT22;2304;47.606;12.186;2023-10-19T17:10:34;17.90;68.40
4584;DHT22;2304;47.606;12.186;2023-10-19T17:15:36;17.80;68.70
4584;DHT22;2304;47.606;12.186;2023-10-19T17:20:39;17.80;68.70
4584;DHT22;2304;47.606;12.186;2023-10-19T17:25:42;17.70;69.30
4584;DHT22;2304;47.606;12.186;2023-10-19T17:30:44;17.60;69.40
4584;DHT22;2304;47.606;12.186;2023-10-19T17:35:47;17.60;69.70
4584;DHT22;2304;47.606;12.186;2023-10-19T17:40:50;17.50;69.90
4584;DHT22;2304;47.606;12.186;2023-10-19T17:45:51;17.40;70.10
4584;DHT22;2304;47.606;12.186;2023-10-19T17:50:55;17.30;70.40
4584;DHT22;2304;47.606;12.186;2023-10-19T17:55:56;17.30;70.60
4584;DHT22;2304;47.606;12.186;2023-10-19T18:00:58;17.20;70.80
4584;DHT22;2304;47.606;12.186;2023-10-19T18:06:02;17.20;70.80
4584;DHT22;2304;47.606;12.186;2023-10-19T18:11:04;17.10;71.20
4584;DHT22;2304;47.606;12.186;2023-10-19T18:16:06;17.00;72.20
4584;DHT22;2304;47.606;12.186;2023-10-19T18:21:12;16.90;72.20
4584;DHT22;2304;47.606;12.186;2023-10-19T18:26:14;16.90;72.60
4584;DHT22;2304;47.606;12.186;2023-10-19T18:31:16;16.90;72.30
4584;DHT22;2304;47.606;12.186;2023-10-19T18:36:19;16.90;72.20
4584;DHT22;2304;47.606;12.186;2023-10-19T18:41:21;16.90;72.80
4584;DHT22;2304;47.606;12.186;2023-10-19T18:46:23;16.70;72.40
4584;DHT22;2304;47.606;12.186;2023-10-19T18:51:28;16.70;72.90
4584;DHT22;2304;47.606;12.186;2023-10-19T18:56:30;16.60;73.20
4584;DHT22;2304;47.606;12.186;2023-10-19T19:01:33;16.60;73.40
4584;DHT22;2304;47.606;12.186;2023-10-19T19:06:37;16.50;74.20
4584;DHT22;2304;47.606;12.186;2023-10-19T19:11:39;16.50;74.00
4584;DHT22;2304;47.606;12.186;2023-10-19T19:16:42;16.40;73.80
4584;DHT22;2304;47.606;12.186;2023-10-19T19:21:48;16.50;73.50
4584;DHT22;2304;47.606;12.186;2023-10-19T19:26:50;16.40;73.90
4584;DHT22;2304;47.606;12.186;2023-10-19T19:31:52;16.30;75.10
4584;DHT22;2304;47.606;12.186;2023-10-19T19:36:56;16.30;75.50
4584;DHT22;2304;47.606;12.186;2023-10-19T19:41:58;16.40;75.30
4584;DHT22;2304;47.606;12.186;2023-10-19T19:47:00;16.20;76.20
4584;DHT22;2304;47.606;12.186;2023-10-19T19:52:03;16.10;76.30
4584;DHT22;2304;47.606;12.186;2023-10-19T19:57:05;16.10;77.40
4584;DHT22;2304;47.606;12.186;2023-10-19T20:02:07;16.00;78.50
4584;DHT22;2304;47.606;12.186;2023-10-19T20:07:10;15.90;79.00
4584;DHT22;2304;47.606;12.186;2023-10-19T20:12:12;15.90;79.00
4584;DHT22;2304;47.606;12.186;2023-10-19T20:17:14;16.10;79.20
4584;DHT22;2304;47.606;12.186;2023-10-19T20:22:17;15.90;79.00
4584;DHT22;2304;47.606;12.186;2023-10-19T20:27:19;16.00;78.90
4584;DHT22;2304;47.606;12.186;2023-10-19T20:32:21;15.90;79.70
4584;DHT22;2304;47.606;12.186;2023-10-19T20:37:24;15.80;80.00
4584;DHT22;2304;47.606;12.186;2023-10-19T20:42:25;15.80;79.70
4584;DHT22;2304;47.606;12.186;2023-10-19T20:47:27;15.80;80.20
4584;DHT22;2304;47.606;12.186;2023-10-19T20:52:30;15.80;79.90
4584;DHT22;2304;47.606;12.186;2023-10-19T20:57:32;15.80;81.30
4584;DHT22;2304;47.606;12.186;2023-10-19T21:02:35;15.70;80.40
4584;DHT22;2304;47.606;12.186;2023-10-19T21:07:38;15.70;81.00
4584;DHT22;2304;47.606;12.186;2023-10-19T21:12:40;15.60;80.60
4584;DHT22;2304;47.606;12.186;2023-10-19T21:17:45;15.70;81.30
4584;DHT22;2304;47.606;12.186;2023-10-19T21:22:49;15.60;81.60
4584;DHT22;2304;47.606;12.186;2023-10-19T21:27:51;15.80;82.40
4584;DHT22;2304;47.606;12.186;2023-10-19T21:32:53;15.50;82.00
4584;DHT22;2304;47.606;12.186;2023-10-19T21:37:56;15.50;81.60
4584;DHT22;2304;47.606;12.186;2023-10-19T21:42:58;15.50;83.00
4584;DHT22;2304;47.606;12.186;2023-10-19T21:48:00;15.40;83.40
4584;DHT22;2304;47.606;12.186;2023-10-19T21:53:03;15.50;82.90
4584;DHT22;2304;47.606;12.186;2023-10-19T21:58:05;15.50;81.60
4584;DHT22;2304;47.606;12.186;2023-10-19T22:03:07;15.50;81.80
4584;DHT22;2304;47.606;12.186;2023-10-19T22:08:11;15.40;82.00
4584;DHT22;2304;47.606;12.186;2023-10-19T22:13:14;15.40;81.70
4584;DHT22;2304;47.606;12.186;2023-10-19T22:18:16;15.30;81.80
4584;DHT22;2304;47.606;12.186;2023-10-19T22:23:20;15.40;82.20
4584;DHT22;2304;47.606;12.186;2023-10-19T22:28:22;15.10;83.20
4584;DHT22;2304;47.606;12.186;2023-10-19T22:33:24;15.10;83.20
4584;DHT22;2304;47.606;12.186;2023-10-19T22:38:27;15.10;83.60
4584;DHT22;2304;47.606;12.186;2023-10-19T22:43:29;15.00;84.50
4584;DHT22;2304;47.606;12.186;2023-10-19T22:48:31;15.00;83.90
4584;DHT22;2304;47.606;12.186;2023-10-19T22:53:34;15.00;83.20
4584;DHT22;2304;47.606;12.186;2023-10-19T22:58:38;15.00;82.70
4584;DHT22;2304;47.606;12.186;2023-10-19T23:03:40;14.90;82.00
4584;DHT22;2304;47.606;12.186;2023-10-19T23:08:45;14.90;82.30
4584;DHT22;2304;47.606;12.186;2023-10-19T23:13:47;15.10;82.50
4584;DHT22;2304;47.606;12.186;2023-10-19T23:18:49;14.90;81.90
4584;DHT22;2304;47.606;12.186;2023-10-19T23:23:54;14.90;82.20
4584;DHT22;2304;47.606;12.186;2023-10-19T23:28:56;14.80;82.10
4584;DHT22;2304;47.606;12.186;2023-10-19T23:34:02;14.80;83.50
4584;DHT22;2304;47.606;12.186;2023-10-19T23:39:05;14.70;83.10
4584;DHT22;2304;47.606;12.186;2023-10-19T23:44:08;14.70;83.00
4584;DHT22;2304;47.606;12.186;2023-10-19T23:49:10;14.70;82.70
4584;DHT22;2304;47.606;12.186;2023-10-19T23:54:13;14.70;82.60
4584;DHT22;2304;47.606;12.186;2023-10-19T23:59:15;14.70;81.80
